Time;durP1;ratioP1;P1;durP2;ratioP2;P2;SDS_P1;SDS_P2;PMS_P1;PMS_P2;Temp;Humidity;BMP_temperature;BMP_pressure;BME280_temperature;BME280_humidity;BME280_pressure;Samples;Min_cycle;Max_cycle;Signal;HPM_P1;HPM_P2
2021/04/01 00:00:51;;;;;;;35.63;20.50;;;16.50;63.50;;;;;;5044984;28;20019;-77
2021/04/01 00:03:17;;;;;;;31.90;19.40;;;16.50;63.40;;;;;;5046890;28;20395;-78
2021/04/01 00:05:44;;;;;;;34.80;20.85;;;16.40;64.00;;;;;;5066674;28;20063;-78
2021/04/01 00:08:10;;;;;;;34.95;21.80;;;16.40;63.80;;;;;;5044359;28;20350;-77
2021/04/01 00:10:41;;;;;;;35.90;21.63;;;16.40;63.70;;;;;;5064314;28;20048;-77
2021/04/01 00:13:08;;;;;;;37.15;21.60;;;16.40;63.60;;;;;;5068673;28;20055;-78
2021/04/01 00:15:37;;;;;;;33.63;20.67;;;16.30;63.60;;;;;;5060353;28;20028;-78
2021/04/01 00:18:03;;;;;;;36.53;24.05;;;16.30;63.90;;;;;;5040860;28;20025;-78
2021/04/01 00:20:29;;;;;;;38.83;24.42;;;16.20;64.20;;;;;;5063937;28;20488;-78
2021/04/01 00:22:54;;;;;;;38.67;23.33;;;16.20;64.50;;;;;;5046471;28;20028;-79
2021/04/01 00:25:23;;;;;;;39.47;23.85;;;16.20;65.00;;;;;;5022669;28;20119;-79
2021/04/01 00:27:49;;;;;;;41.20;24.80;;;16.20;64.40;;;;;;5052289;28;20105;-77
2021/04/01 00:30:15;;;;;;;42.22;26.98;;;16.20;64.40;;;;;;5039737;28;20527;-77
2021/04/01 00:32:41;;;;;;;39.13;25.00;;;16.20;64.60;;;;;;5040398;28;20028;-78
2021/04/01 00:35:07;;;;;;;36.15;22.63;;;16.10;65.00;;;;;;5047290;28;20159;-79
2021/04/01 00:37:34;;;;;;;34.22;22.05;;;16.10;65.20;;;;;;5044273;28;20067;-77
2021/04/01 00:39:59;;;;;;;34.17;21.10;;;16.10;65.60;;;;;;5070915;28;20020;-78
2021/04/01 00:42:25;;;;;;;34.50;22.05;;;16.10;65.60;;;;;;5052738;28;20488;-79
2021/04/01 00:44:51;;;;;;;37.42;22.73;;;16.10;66.00;;;;;;5039233;28;20116;-78
2021/04/01 00:47:17;;;;;;;31.92;20.48;;;16.10;65.50;;;;;;5036443;28;20183;-79
2021/04/01 00:49:42;;;;;;;33.90;20.70;;;16.10;66.00;;;;;;5053156;28;20074;-79
2021/04/01 00:52:09;;;;;;;33.53;20.55;;;16.10;66.30;;;;;;5070511;28;20150;-77
2021/04/01 00:54:36;;;;;;;32.90;21.20;;;16.10;66.40;;;;;;5053368;28;20025;-77
2021/04/01 00:57:05;;;;;;;32.72;19.95;;;16.10;66.10;;;;;;5038940;28;20037;-78
2021/04/01 00:59:32;;;;;;;33.83;20.27;;;16.10;66.50;;;;;;5044159;28;20040;-78
2021/04/01 01:02:03;;;;;;;34.25;20.63;;;16.10;66.50;;;;;;5049456;28;20033;-79
2021/04/01 01:04:31;;;;;;;31.55;19.45;;;16.00;66.20;;;;;;5037251;28;20465;-78
2021/04/01 01:06:56;;;;;;;30.27;18.67;;;16.00;66.10;;;;;;5050498;28;20041;-78
2021/04/01 01:09:22;;;;;;;33.33;20.00;;;16.00;66.10;;;;;;5020231;28;20036;-78
2021/04/01 01:11:48;;;;;;;30.70;19.75;;;16.00;65.80;;;;;;5048930;28;20047;-78
2021/04/01 01:14:13;;;;;;;31.35;19.33;;;16.00;66.40;;;;;;5019233;28;20027;-77
2021/04/01 01:16:39;;;;;;;30.42;19.77;;;16.00;66.70;;;;;;5030341;28;20124;-78
2021/04/01 01:19:05;;;;;;;34.78;21.55;;;15.90;66.60;;;;;;5042543;28;20104;-78
2021/04/01 01:21:31;;;;;;;32.33;19.52;;;15.90;66.10;;;;;;5074942;28;20021;-78
2021/04/01 01:23:58;;;;;;;32.33;19.13;;;15.90;65.90;;;;;;5041910;28;20105;-84
2021/04/01 01:26:24;;;;;;;30.02;18.95;;;15.90;66.50;;;;;;5035763;28;20060;-78
2021/04/01 01:28:50;;;;;;;31.90;20.08;;;15.80;66.40;;;;;;5036192;28;20370;-79
2021/04/01 01:31:19;;;;;;;31.73;19.65;;;15.80;67.20;;;;;;5053474;28;20027;-79
2021/04/01 01:33:45;;;;;;;33.33;20.33;;;15.70;67.40;;;;;;5036896;28;20048;-78
2021/04/01 01:36:12;;;;;;;28.77;18.13;;;15.70;67.80;;;;;;5033592;28;20105;-79
2021/04/01 01:38:38;;;;;;;34.85;20.27;;;15.70;67.90;;;;;;5062650;28;20100;-77
2021/04/01 01:41:04;;;;;;;32.22;20.25;;;15.70;68.70;;;;;;5055933;28;20048;-79
2021/04/01 01:43:31;;;;;;;33.20;19.90;;;15.70;67.40;;;;;;5067662;28;20025;-77
2021/04/01 01:45:57;;;;;;;32.78;19.88;;;15.60;67.60;;;;;;5048563;28;20118;-78
2021/04/01 01:48:23;;;;;;;31.60;20.02;;;15.60;67.50;;;;;;5041837;28;20032;-78
2021/04/01 01:50:49;;;;;;;33.17;19.35;;;15.60;68.20;;;;;;5073794;28;20024;-78
2021/04/01 01:53:15;;;;;;;30.67;19.05;;;15.60;69.10;;;;;;5024967;28;20026;-79
2021/04/01 01:55:41;;;;;;;32.55;20.17;;;15.50;68.80;;;;;;5056146;28;20028;-78
2021/04/01 01:58:07;;;;;;;37.13;22.88;;;15.50;68.10;;;;;;5038810;28;20025;-78
2021/04/01 02:00:44;;;;;;;36.85;19.83;;;15.40;67.40;;;;;;5074173;28;20032;-79
2021/04/01 02:03:11;;;;;;;35.97;21.88;;;15.30;68.20;;;;;;5055666;28;20020;-80
2021/04/01 02:05:39;;;;;;;36.72;21.92;;;15.20;68.50;;;;;;5073801;28;20353;-78
2021/04/01 02:08:07;;;;;;;39.97;23.13;;;15.10;69.50;;;;;;5043034;28;20025;-78
2021/04/01 02:10:38;;;;;;;39.08;21.92;;;15.00;69.60;;;;;;5035961;28;20552;-78
2021/04/01 02:13:04;;;;;;;40.33;23.92;;;14.90;69.70;;;;;;5046370;28;20024;-79
2021/04/01 02:15:39;;;;;;;43.97;24.70;;;14.90;69.10;;;;;;5073432;28;20020;-78
2021/04/01 02:18:13;;;;;;;42.28;24.42;;;14.90;69.20;;;;;;5062497;28;20102;-79
2021/04/01 02:20:46;;;;;;;46.88;26.65;;;14.90;69.20;;;;;;5053849;28;20373;-78
2021/04/01 02:23:29;;;;;;;42.95;24.95;;;15.00;68.30;;;;;;5062328;28;20087;-78
2021/04/01 02:25:56;;;;;;;47.05;26.85;;;15.00;68.10;;;;;;5050764;28;20021;-79
2021/04/01 02:28:24;;;;;;;43.22;26.80;;;15.00;68.10;;;;;;5048245;28;20457;-77
2021/04/01 02:30:52;;;;;;;48.08;25.38;;;15.00;68.50;;;;;;5049886;28;20020;-78
2021/04/01 02:33:23;;;;;;;45.78;26.33;;;15.00;67.70;;;;;;5059882;28;20027;-78
2021/04/01 02:35:49;;;;;;;;;;;15.10;67.90;;;;;;5073791;28;20124;-78
2021/04/01 02:38:16;;;;;;;44.33;25.50;;;15.10;68.10;;;;;;5053749;28;19960;-78
2021/04/01 02:40:41;;;;;;;43.33;26.77;;;15.10;68.30;;;;;;5035495;28;20053;-78
2021/04/01 02:43:13;;;;;;;45.70;26.40;;;15.10;68.40;;;;;;5036245;28;20028;-79
2021/04/01 02:45:39;;;;;;;47.85;28.20;;;15.10;68.60;;;;;;5055710;28;20016;-78
2021/04/01 02:48:05;;;;;;;44.00;26.42;;;15.10;68.50;;;;;;5025270;28;20119;-82
2021/04/01 02:50:30;;;;;;;43.42;26.50;;;15.10;68.80;;;;;;5057057;28;20078;-78
2021/04/01 02:52:56;;;;;;;49.58;27.75;;;15.10;68.40;;;;;;5058263;28;20024;-78
2021/04/01 02:55:22;;;;;;;46.30;27.40;;;15.10;68.40;;;;;;5067540;28;20025;-77
2021/04/01 02:57:47;;;;;;;50.88;29.58;;;15.10;68.40;;;;;;5083012;28;20036;-77
2021/04/01 03:00:18;;;;;;;46.83;27.50;;;15.00;67.70;;;;;;5074318;28;20013;-83
2021/04/01 03:03:57;;;;;;;48.17;28.55;;;15.00;68.20;;;;;;5099666;27;776729;-78
2021/04/01 03:06:22;;;;;;;51.50;28.33;;;15.00;68.60;;;;;;5100130;28;20059;-82
2021/04/01 03:08:49;;;;;;;50.20;28.75;;;15.00;68.90;;;;;;5097118;28;20033;-78
2021/04/01 03:11:15;;;;;;;53.05;30.00;;;15.00;68.90;;;;;;5080353;28;20031;-80
2021/04/01 03:13:40;;;;;;;49.00;27.70;;;15.00;68.80;;;;;;5074456;28;20115;-78
2021/04/01 03:16:06;;;;;;;47.00;28.23;;;15.00;68.90;;;;;;5067627;28;20028;-79
2021/04/01 03:18:32;;;;;;;51.25;29.27;;;15.00;69.10;;;;;;5081313;28;20024;-78
2021/04/01 03:20:57;;;;;;;50.17;28.58;;;15.00;68.90;;;;;;5074007;28;20400;-79
2021/04/01 03:23:23;;;;;;;50.17;28.75;;;14.90;69.50;;;;;;5074774;28;20079;-79
2021/04/01 03:25:49;;;;;;;51.13;29.90;;;14.90;69.20;;;;;;5086773;28;20043;-80
2021/04/01 03:28:16;;;;;;;52.92;28.92;;;14.90;70.00;;;;;;5067475;28;20499;-79
2021/04/01 03:30:59;;;;;;;50.47;29.55;;;14.90;69.50;;;;;;5051429;28;20029;-79
2021/04/01 03:33:24;;;;;;;51.35;30.92;;;14.80;70.00;;;;;;5060352;28;20046;-79
2021/04/01 03:35:50;;;;;;;53.08;29.67;;;14.80;70.10;;;;;;5087575;28;20032;-78
2021/04/01 03:38:17;;;;;;;51.65;29.92;;;14.70;69.70;;;;;;5082190;28;20024;-80
2021/04/01 03:40:43;;;;;;;50.75;28.65;;;14.70;70.20;;;;;;5079054;28;20028;-79
2021/04/01 03:43:09;;;;;;;52.28;28.90;;;14.70;70.00;;;;;;5050901;28;20025;-78
2021/04/01 03:45:35;;;;;;;47.03;27.95;;;14.60;69.30;;;;;;5060206;28;20511;-79
2021/04/01 03:48:00;;;;;;;46.50;25.95;;;14.50;69.10;;;;;;5068467;28;20151;-79
2021/04/01 03:50:26;;;;;;;49.22;27.77;;;14.40;69.60;;;;;;5066703;28;20032;-79
2021/04/01 03:52:52;;;;;;;48.05;27.25;;;14.30;70.20;;;;;;5080679;28;20024;-78
2021/04/01 04:00:45;;;;;;;49.55;28.02;;;14.10;71.00;;;;;;5061384;28;20388;-79
2021/04/01 04:13:05;;;;;;;47.65;26.92;;;13.90;72.70;;;;;;5070237;28;20044;-80
2021/04/01 04:15:31;;;;;;;56.42;28.88;;;13.90;73.10;;;;;;5050752;28;20043;-79
2021/04/01 04:17:57;;;;;;;46.67;27.00;;;13.80;73.00;;;;;;5066983;28;20025;-79
2021/04/01 04:20:22;;;;;;;53.30;28.65;;;13.80;72.70;;;;;;5039361;28;20451;-78
2021/04/01 04:22:52;;;;;;;50.92;28.58;;;13.80;73.30;;;;;;5074422;28;20020;-79
2021/04/01 04:25:19;;;;;;;51.28;28.92;;;13.80;73.30;;;;;;5072762;28;20031;-79
2021/04/01 04:30:11;;;;;;;52.50;27.48;;;13.70;73.10;;;;;;5074145;28;20032;-78
2021/04/01 04:32:37;;;;;;;45.53;26.85;;;13.60;73.00;;;;;;5058393;28;20055;-79
2021/04/01 04:35:03;;;;;;;49.97;27.83;;;13.50;73.10;;;;;;5059753;28;20024;-79
2021/04/01 04:37:29;;;;;;;51.35;28.63;;;13.50;73.90;;;;;;5039903;28;20154;-82
2021/04/01 04:39:54;;;;;;;48.22;27.13;;;13.50;74.20;;;;;;5054897;28;20509;-80
2021/04/01 04:42:20;;;;;;;47.53;26.98;;;13.40;73.70;;;;;;5063578;28;20099;-79
2021/04/01 04:44:46;;;;;;;50.60;28.25;;;13.40;73.90;;;;;;5072466;28;20051;-78
2021/04/01 04:47:12;;;;;;;48.25;28.38;;;13.30;74.60;;;;;;5072378;28;20107;-79
2021/04/01 04:49:37;;;;;;;48.58;27.33;;;13.30;74.90;;;;;;5036601;28;20033;-79
2021/04/01 04:52:03;;;;;;;52.35;28.48;;;13.30;74.90;;;;;;5066208;28;20035;-78
2021/04/01 04:54:32;;;;;;;56.25;30.63;;;13.30;75.20;;;;;;5065505;28;20043;-78
2021/04/01 04:57:03;;;;;;;49.38;27.95;;;13.30;75.40;;;;;;5058503;28;20025;-79
2021/04/01 04:59:33;;;;;;;48.88;27.88;;;13.30;75.40;;;;;;5073578;28;20095;-80
2021/04/01 05:04:47;;;;;;;52.60;28.60;;;13.20;75.80;;;;;;5053267;28;20052;-79
2021/04/01 05:07:12;;;;;;;48.55;27.55;;;13.20;75.60;;;;;;5051624;28;20029;-79
2021/04/01 05:09:38;;;;;;;49.85;27.55;;;13.20;75.70;;;;;;5063602;28;20111;-81
2021/04/01 05:12:05;;;;;;;53.25;29.67;;;13.10;75.50;;;;;;5055240;28;20028;-79
2021/04/01 05:14:30;;;;;;;50.90;28.90;;;13.10;75.70;;;;;;5071716;28;20523;-79
2021/04/01 05:16:56;;;;;;;52.83;28.95;;;13.10;75.70;;;;;;5028816;28;20120;-80
2021/04/01 05:19:23;;;;;;;54.40;29.08;;;13.10;75.40;;;;;;5072549;28;20477;-78
2021/04/01 05:24:17;;;;;;;52.30;27.95;;;13.00;76.00;;;;;;5069879;28;20032;-78
2021/04/01 05:29:38;;;;;;;51.00;27.15;;;12.90;75.90;;;;;;5069120;28;20032;-80
2021/04/01 05:32:05;;;;;;;54.22;29.52;;;12.90;76.60;;;;;;5072261;28;20468;-80
2021/04/01 05:34:31;;;;;;;50.90;27.60;;;12.90;76.20;;;;;;5053913;28;20028;-79
2021/04/01 05:36:59;;;;;;;54.97;30.52;;;12.80;76.70;;;;;;5071163;28;20029;-78
2021/04/01 05:39:29;;;;;;;55.33;29.20;;;12.80;77.10;;;;;;5065947;28;20078;-78
2021/04/01 05:41:56;;;;;;;54.95;28.92;;;12.80;77.40;;;;;;5053218;28;20473;-79
2021/04/01 05:44:33;;;;;;;54.30;29.42;;;12.80;77.50;;;;;;5067827;28;20035;-79
2021/04/01 05:47:20;;;;;;;55.30;30.40;;;12.80;77.50;;;;;;5069322;28;20016;-79
2021/04/01 05:50:11;;;;;;;54.80;29.23;;;12.80;77.70;;;;;;5069771;28;20024;-79
2021/04/01 06:04:00;;;;;;;51.38;27.27;;;12.80;78.20;;;;;;5068420;28;20114;-81
2021/04/01 06:06:41;;;;;;;51.38;28.20;;;12.80;78.40;;;;;;5044743;28;20056;-81
2021/04/01 06:09:18;;;;;;;50.85;27.38;;;12.80;78.50;;;;;;5064350;28;20040;-80
2021/04/01 06:11:46;;;;;;;47.90;25.90;;;12.80;78.50;;;;;;5057183;28;20017;-79
2021/04/01 06:14:19;;;;;;;45.25;25.90;;;12.80;78.50;;;;;;5060052;28;20047;-79
2021/04/01 06:16:45;;;;;;;46.75;26.05;;;12.80;78.50;;;;;;5056158;28;20021;-80
2021/04/01 06:19:16;;;;;;;52.58;26.65;;;12.80;78.40;;;;;;5057316;28;20545;-79
2021/04/01 06:21:43;;;;;;;;;;;12.90;78.40;;;;;;5066571;28;20024;-78
2021/04/01 06:24:27;;;;;;;44.92;25.25;;;12.90;78.80;;;;;;5057359;28;19962;-78
2021/04/01 06:27:23;;;;;;;46.72;23.50;;;12.90;78.60;;;;;;5072001;28;20107;-79
2021/04/01 06:30:15;;;;;;;46.38;23.00;;;12.90;78.50;;;;;;5055624;28;20021;-79
2021/04/01 06:32:51;;;;;;;48.50;24.77;;;12.90;77.90;;;;;;5055179;28;20036;-79
2021/04/01 06:40:53;;;;;;;43.80;21.00;;;13.00;78.00;;;;;;5080470;28;20036;-79
2021/04/01 06:43:20;;;;;;;47.90;22.98;;;13.10;78.10;;;;;;5086998;28;20049;-79
2021/04/01 06:45:53;;;;;;;45.95;23.20;;;13.10;78.00;;;;;;5089206;28;20084;-85
2021/04/01 06:48:22;;;;;;;43.55;21.80;;;13.20;78.00;;;;;;5090427;28;20052;-81
2021/04/01 06:50:50;;;;;;;48.40;23.55;;;13.20;78.50;;;;;;5037193;28;20067;-79
2021/04/01 06:53:29;;;;;;;48.78;24.13;;;13.30;77.70;;;;;;5068968;28;20017;-84
2021/04/01 06:56:15;;;;;;;48.35;24.95;;;13.30;78.20;;;;;;5070013;28;20334;-79
2021/04/01 06:58:58;;;;;;;51.53;25.70;;;13.40;77.30;;;;;;5053012;28;20033;-79
2021/04/01 07:01:43;;;;;;;54.83;27.17;;;13.40;77.00;;;;;;5060310;28;20485;-79
2021/04/01 07:04:11;;;;;;;59.45;28.85;;;13.50;76.80;;;;;;5062777;28;20056;-78
2021/04/01 07:06:40;;;;;;;61.35;30.45;;;13.50;76.50;;;;;;5051489;28;20021;-77
2021/04/01 07:12:13;;;;;;;58.42;29.85;;;13.60;76.20;;;;;;5069692;28;20033;-77
2021/04/01 07:14:41;;;;;;;57.08;29.45;;;13.60;76.10;;;;;;5068497;28;20039;-77
2021/04/01 07:47:38;;;;;;;65.45;32.55;;;14.10;75.50;;;;;;5069418;28;20032;-77
2021/04/01 07:50:22;;;;;;;68.07;32.80;;;14.20;75.20;;;;;;5070925;28;20037;-77
2021/04/01 07:52:58;;;;;;;62.20;30.25;;;14.20;75.20;;;;;;5053662;28;20048;-77
2021/04/01 07:55:39;;;;;;;66.00;31.27;;;14.30;75.20;;;;;;5071798;28;20017;-78
2021/04/01 08:06:10;;;;;;;63.05;32.42;;;14.50;74.90;;;;;;5066846;28;20029;-79
2021/04/01 08:08:44;;;;;;;66.80;33.95;;;14.60;74.70;;;;;;5070367;28;20108;-77
2021/04/01 08:11:11;;;;;;;63.92;32.08;;;14.70;74.50;;;;;;5070094;28;20471;-77
2021/04/01 08:13:46;;;;;;;65.57;34.45;;;14.70;74.50;;;;;;5072384;28;20032;-78
2021/04/01 08:16:16;;;;;;;66.57;34.10;;;14.80;74.40;;;;;;5069263;28;20106;-78
2021/04/01 08:18:44;;;;;;;69.55;36.38;;;14.90;74.30;;;;;;5069669;28;20465;-77
2021/04/01 08:21:12;;;;;;;67.55;36.15;;;15.00;74.10;;;;;;5065564;28;20031;-77
2021/04/01 08:23:54;;;;;;;69.18;36.28;;;15.10;74.30;;;;;;5053425;28;20070;-78
2021/04/01 08:31:39;;;;;;;67.50;35.40;;;15.30;74.00;;;;;;5073460;28;20059;-80
2021/04/01 08:36:54;;;;;;;66.00;34.28;;;15.50;73.30;;;;;;5057464;28;20048;-81
2021/04/01 08:39:22;;;;;;;60.10;34.17;;;15.60;73.00;;;;;;5036894;28;20374;-79
2021/04/01 08:42:07;;;;;;;62.08;35.03;;;15.60;72.80;;;;;;5067045;28;20040;-79
2021/04/01 08:45:17;;;;;;;59.72;33.78;;;15.80;72.60;;;;;;5063110;28;20107;-78
2021/04/01 08:48:02;;;;;;;55.63;31.90;;;15.80;72.30;;;;;;5060424;28;20358;-81
2021/04/01 08:51:05;;;;;;;60.20;34.90;;;16.00;72.00;;;;;;5064329;28;20016;-79
2021/04/01 08:53:45;;;;;;;59.45;33.88;;;16.10;71.50;;;;;;5064701;28;20039;-81
2021/04/01 08:56:29;;;;;;;70.90;38.88;;;16.20;71.10;;;;;;5071004;28;20020;-82
2021/04/01 08:59:07;;;;;;;64.95;37.83;;;16.30;70.30;;;;;;5059377;28;20021;-78
2021/04/01 09:01:39;;;;;;;59.55;33.90;;;16.30;69.50;;;;;;5066833;28;20100;-77
2021/04/01 09:04:06;;;;;;;66.18;36.75;;;16.40;69.60;;;;;;5073285;28;20056;-78
2021/04/01 09:06:36;;;;;;;61.50;34.92;;;16.50;69.50;;;;;;5072870;28;20103;-80
2021/04/01 09:09:08;;;;;;;69.43;40.47;;;16.60;69.30;;;;;;5059375;28;20025;-78
2021/04/01 09:12:04;;;;;;;58.35;35.38;;;16.70;68.30;;;;;;5063611;28;20063;-77
2021/04/01 09:14:26;;;;;;;63.97;38.00;;;16.80;68.50;;;;;;5066622;28;20035;-77
2021/04/01 09:17:05;;;;;;;64.32;36.78;;;16.90;68.30;;;;;;5063786;28;20119;-77
2021/04/01 09:19:31;;;;;;;62.97;36.83;;;16.90;67.60;;;;;;5050988;28;20372;-77
2021/04/01 09:21:57;;;;;;;69.20;39.30;;;17.00;67.90;;;;;;5063963;28;20032;-79
2021/04/01 09:24:32;;;;;;;68.50;39.33;;;17.10;67.80;;;;;;5065552;28;20405;-77
2021/04/01 09:27:00;;;;;;;68.95;41.30;;;17.20;66.10;;;;;;5066773;28;20124;-77
2021/04/01 09:29:37;;;;;;;60.40;37.20;;;17.30;65.80;;;;;;5056106;28;20083;-78
2021/04/01 09:32:03;;;;;;;65.80;39.05;;;17.40;65.90;;;;;;5062853;28;20170;-78
2021/04/01 09:34:32;;;;;;;61.00;36.47;;;17.50;64.60;;;;;;5070169;28;20150;-77
2021/04/01 09:37:17;;;;;;;61.17;37.22;;;17.50;64.60;;;;;;5050769;28;20528;-77
2021/04/01 09:39:43;;;;;;;58.33;36.78;;;17.60;64.60;;;;;;5066331;28;20041;-77
2021/04/01 09:42:11;;;;;;;58.28;35.47;;;17.70;64.30;;;;;;5052194;28;20080;-78
2021/04/01 09:44:57;;;;;;;57.20;34.47;;;17.80;64.10;;;;;;5067330;28;20509;-77
2021/04/01 09:47:27;;;;;;;64.55;39.17;;;17.90;64.00;;;;;;5061872;28;20021;-77
2021/04/01 09:50:11;;;;;;;60.13;37.40;;;18.00;63.20;;;;;;5067642;28;20032;-80
2021/04/01 09:52:39;;;;;;;65.10;39.08;;;18.10;63.00;;;;;;5070645;28;20025;-77
2021/04/01 09:55:11;;;;;;;58.50;37.25;;;18.10;62.40;;;;;;5061428;28;20025;-77
2021/04/01 09:57:46;;;;;;;60.13;36.42;;;18.20;61.90;;;;;;5062413;28;20023;-78
2021/04/01 10:00:29;;;;;;;57.92;36.10;;;18.30;61.40;;;;;;5062497;28;20025;-78
2021/04/01 10:03:05;;;;;;;55.92;34.58;;;18.30;61.80;;;;;;5072125;28;20048;-79
2021/04/01 10:05:43;;;;;;;53.97;34.40;;;18.40;62.00;;;;;;5058926;28;20349;-77
2021/04/01 10:08:21;;;;;;;54.67;35.17;;;18.50;62.40;;;;;;5070375;28;20500;-77
2021/04/01 10:10:50;;;;;;;54.38;34.85;;;18.50;62.60;;;;;;5060965;28;20029;-80
2021/04/01 10:13:24;;;;;;;54.17;33.83;;;18.70;62.70;;;;;;5053885;28;20477;-78
2021/04/01 10:15:51;;;;;;;53.70;33.25;;;18.70;62.90;;;;;;5059564;28;20135;-78
2021/04/01 10:18:39;;;;;;;49.88;32.90;;;18.80;63.00;;;;;;5072952;28;20017;-80
2021/04/01 10:21:10;;;;;;;48.47;31.60;;;18.80;62.30;;;;;;5053469;28;20096;-77
2021/04/01 10:23:48;;;;;;;51.72;29.40;;;18.90;61.90;;;;;;5060367;28;20112;-81
2021/04/01 10:26:15;;;;;;;41.33;26.75;;;19.00;62.50;;;;;;5070917;28;20093;-77
2021/04/01 10:31:43;;;;;;;38.05;24.73;;;19.10;62.10;;;;;;5062194;28;20118;-77
2021/04/01 10:34:08;;;;;;;36.42;22.88;;;19.20;62.60;;;;;;5060516;28;20036;-77
2021/04/01 10:36:42;;;;;;;36.78;23.77;;;19.30;62.10;;;;;;5054063;28;20021;-77
2021/04/01 10:39:09;;;;;;;34.58;22.10;;;19.30;61.60;;;;;;5066465;28;20452;-77
2021/04/01 10:41:50;;;;;;;29.42;18.00;;;19.30;61.20;;;;;;5053062;28;20051;-77
2021/04/01 10:44:19;;;;;;;22.25;11.88;;;19.40;60.80;;;;;;5051652;28;20492;-77
2021/04/01 10:46:53;;;;;;;19.27;11.50;;;19.50;61.10;;;;;;5054461;28;20475;-76
2021/04/01 10:49:28;;;;;;;17.83;10.82;;;19.50;59.30;;;;;;5059286;28;20035;-76
2021/04/01 10:52:08;;;;;;;19.60;11.80;;;19.60;59.40;;;;;;5056307;28;20052;-78
2021/04/01 10:54:36;;;;;;;20.10;11.80;;;19.60;59.00;;;;;;5056668;28;20485;-75
2021/04/01 10:57:03;;;;;;;18.20;10.82;;;19.70;58.60;;;;;;5057362;28;20043;-76
2021/04/01 10:59:46;;;;;;;14.68;9.45;;;19.80;59.30;;;;;;5060322;28;20443;-75
2021/04/01 11:02:18;;;;;;;16.77;10.23;;;19.80;59.00;;;;;;5062061;28;20560;-73
2021/04/01 11:04:46;;;;;;;17.50;9.13;;;19.90;57.40;;;;;;5059725;28;20046;-77
2021/04/01 11:07:13;;;;;;;14.05;7.38;;;20.00;58.10;;;;;;5061968;28;20024;-76
2021/04/01 11:09:40;;;;;;;9.43;5.05;;;20.00;57.60;;;;;;5062101;28;20036;-75
2021/04/01 11:12:16;;;;;;;9.85;5.00;;;20.10;57.20;;;;;;5057909;28;20053;-73
2021/04/01 11:14:44;;;;;;;7.72;4.13;;;20.20;58.30;;;;;;5056408;28;20523;-74
2021/04/01 11:17:15;;;;;;;7.60;4.22;;;20.20;57.50;;;;;;5056850;28;20481;-76
2021/04/01 11:19:42;;;;;;;9.93;4.15;;;20.30;57.10;;;;;;5057361;28;20037;-76
2021/04/01 11:22:08;;;;;;;8.10;3.58;;;20.40;56.40;;;;;;5060046;28;20037;-77
2021/04/01 11:24:37;;;;;;;7.88;3.70;;;20.40;56.80;;;;;;5072385;28;20028;-77
2021/04/01 11:27:13;;;;;;;7.53;3.20;;;20.50;57.30;;;;;;5068226;28;20042;-75
2021/04/01 11:29:52;;;;;;;7.05;3.13;;;20.60;56.60;;;;;;5071341;28;20028;-74
2021/04/01 11:32:27;;;;;;;8.68;3.70;;;20.60;57.30;;;;;;5070150;28;20024;-75
2021/04/01 11:34:55;;;;;;;9.07;3.22;;;20.70;56.30;;;;;;5053688;28;20111;-77
2021/04/01 11:37:33;;;;;;;6.20;2.80;;;20.80;56.10;;;;;;5061534;28;20491;-76
2021/04/01 11:40:04;;;;;;;8.45;3.22;;;20.90;57.20;;;;;;5066546;28;20032;-76
2021/04/01 11:42:30;;;;;;;6.32;2.50;;;20.90;55.40;;;;;;5073382;28;20464;-74
2021/04/01 11:44:58;;;;;;;10.38;2.42;;;21.00;56.40;;;;;;5066040;28;20146;-79
2021/04/01 11:47:25;;;;;;;10.98;2.58;;;21.10;55.20;;;;;;5074427;28;20113;-75
2021/04/01 11:49:52;;;;;;;9.18;2.85;;;21.20;56.20;;;;;;5064570;28;20496;-74
2021/04/01 11:52:20;;;;;;;7.43;2.40;;;21.20;54.90;;;;;;5072864;28;20102;-74
2021/04/01 11:54:48;;;;;;;5.75;2.25;;;21.30;55.30;;;;;;5065190;28;20056;-75
2021/04/01 11:57:32;;;;;;;6.30;2.40;;;21.30;54.50;;;;;;5069031;28;20036;-76
2021/04/01 12:00:13;;;;;;;9.98;2.53;;;21.40;55.20;;;;;;5063323;28;20047;-74
2021/04/01 12:02:55;;;;;;;8.48;2.65;;;21.40;54.00;;;;;;5069577;28;20051;-74
2021/04/01 12:05:23;;;;;;;6.72;2.40;;;21.50;54.00;;;;;;5073036;28;20020;-74
2021/04/01 12:07:49;;;;;;;7.43;2.45;;;21.60;53.60;;;;;;5074252;28;20020;-82
2021/04/01 12:10:15;;;;;;;7.13;2.30;;;21.60;54.00;;;;;;5073460;28;20529;-74
2021/04/01 12:12:40;;;;;;;7.15;2.42;;;21.70;53.90;;;;;;5065511;28;20128;-76
2021/04/01 12:15:07;;;;;;;9.43;2.72;;;21.80;53.10;;;;;;5067810;28;20388;-74
2021/04/01 12:17:39;;;;;;;6.88;2.35;;;21.80;52.60;;;;;;5073604;28;20020;-74
2021/04/01 12:20:14;;;;;;;10.50;2.08;;;21.80;53.90;;;;;;5073658;28;20044;-75
2021/04/01 12:22:42;;;;;;;7.93;2.05;;;21.90;53.10;;;;;;5072549;28;20024;-80
2021/04/01 12:25:13;;;;;;;5.63;2.20;;;21.90;52.70;;;;;;5073450;28;20093;-77
2021/04/01 12:27:39;;;;;;;7.00;2.42;;;21.90;52.90;;;;;;5071413;28;20477;-78
2021/04/01 12:30:10;;;;;;;7.95;2.30;;;21.90;53.10;;;;;;5067431;28;20154;-80
2021/04/01 12:32:37;;;;;;;7.65;2.17;;;22.00;51.80;;;;;;5071224;28;20081;-82
2021/04/01 12:35:09;;;;;;;12.07;2.63;;;22.10;53.10;;;;;;5057019;28;20400;-83
2021/04/01 12:37:36;;;;;;;8.85;2.33;;;22.10;52.30;;;;;;5057605;28;20032;-83
2021/04/01 12:40:20;;;;;;;10.27;2.83;;;22.10;51.90;;;;;;5051438;28;20070;-83
2021/04/01 12:42:48;;;;;;;7.82;2.50;;;22.20;52.60;;;;;;5052151;28;20028;-83
2021/04/01 12:45:19;;;;;;;8.05;2.35;;;22.20;52.20;;;;;;5055478;28;20433;-82
2021/04/01 12:47:45;;;;;;;8.38;2.00;;;22.20;52.80;;;;;;5073241;28;20020;-83
2021/04/01 12:50:12;;;;;;;7.68;2.22;;;22.30;53.00;;;;;;5052222;28;20025;-82
2021/04/01 12:52:53;;;;;;;9.27;2.53;;;22.30;52.10;;;;;;5051672;28;20021;-81
2021/04/01 12:55:36;;;;;;;7.25;2.67;;;22.40;50.90;;;;;;5054918;28;20013;-82
2021/04/01 12:58:03;;;;;;;9.20;2.20;;;22.40;51.70;;;;;;5058053;28;20021;-79
2021/04/01 13:00:51;;;;;;;8.40;2.40;;;22.40;50.40;;;;;;5058124;28;20025;-80
2021/04/01 13:03:17;;;;;;;8.73;2.63;;;22.40;51.50;;;;;;5043062;28;20098;-80
2021/04/01 13:05:47;;;;;;;7.88;2.03;;;22.50;51.90;;;;;;5058976;28;20016;-79
2021/04/01 13:10:45;;;;;;;7.03;2.42;;;22.60;51.80;;;;;;5051804;28;20037;-80
2021/04/01 13:13:11;;;;;;;7.00;2.38;;;22.70;51.60;;;;;;5051470;28;20043;-81
2021/04/01 13:15:40;;;;;;;6.53;2.05;;;22.80;52.50;;;;;;5050185;28;20028;-81
2021/04/01 13:18:08;;;;;;;7.97;2.00;;;22.90;51.70;;;;;;5062466;28;20024;-79
2021/04/01 13:20:35;;;;;;;6.47;2.13;;;23.00;51.10;;;;;;5068907;28;20033;-79
2021/04/01 13:25:27;;;;;;;6.97;2.10;;;23.10;51.60;;;;;;5069692;28;20524;-79
2021/04/01 13:27:54;;;;;;;7.28;2.17;;;23.20;50.60;;;;;;5069312;28;20025;-80
2021/04/01 13:30:22;;;;;;;7.10;2.00;;;23.30;50.80;;;;;;5067795;28;20024;-80
2021/04/01 13:35:49;;;;;;;8.55;2.05;;;23.40;49.70;;;;;;5071014;28;20044;-79
2021/04/01 13:38:20;;;;;;;7.22;1.98;;;23.50;49.40;;;;;;5064706;28;20147;-80
2021/04/01 13:40:48;;;;;;;8.15;1.85;;;23.60;49.00;;;;;;5047331;28;20017;-79
2021/04/01 13:43:16;;;;;;;5.57;1.73;;;23.60;48.30;;;;;;5064561;28;20024;-80
2021/04/01 13:45:42;;;;;;;5.28;1.77;;;23.60;47.40;;;;;;5072131;28;20404;-79
2021/04/01 13:48:18;;;;;;;5.40;1.80;;;23.70;47.10;;;;;;5066352;28;20024;-80
2021/04/01 13:50:50;;;;;;;7.85;1.80;;;23.70;47.20;;;;;;5057084;28;20051;-80
2021/04/01 13:55:56;;;;;;;5.03;1.65;;;23.70;46.00;;;;;;5067351;28;20044;-79
2021/04/01 14:09:49;;;;;;;4.75;1.38;;;23.70;46.00;;;;;;5067935;28;20067;-79
2021/04/01 14:12:20;;;;;;;4.40;1.70;;;23.60;45.60;;;;;;5080082;28;20017;-81
2021/04/01 14:14:45;;;;;;;5.78;1.83;;;23.60;44.40;;;;;;5082155;28;20039;-81
2021/04/01 14:17:14;;;;;;;5.18;1.98;;;23.70;45.30;;;;;;5090480;28;20029;-80
2021/04/01 14:19:41;;;;;;;5.40;1.42;;;23.60;44.60;;;;;;5077847;28;20485;-80
2021/04/01 14:22:07;;;;;;;6.70;1.70;;;23.70;45.50;;;;;;5082713;28;20037;-80
2021/04/01 14:24:44;;;;;;;6.55;1.70;;;23.70;43.10;;;;;;5082729;28;20059;-79
2021/04/01 14:30:16;;;;;;;4.13;1.50;;;23.70;43.40;;;;;;5030087;28;20037;-79
2021/04/01 14:32:44;;;;;;;6.25;1.42;;;23.70;43.60;;;;;;5059549;28;20051;-79
2021/04/01 14:35:13;;;;;;;6.18;1.52;;;23.70;43.10;;;;;;5058332;28;20035;-79
2021/04/01 14:37:41;;;;;;;5.72;1.60;;;23.60;42.20;;;;;;5071097;28;20028;-79
2021/04/01 14:40:09;;;;;;;5.85;1.70;;;23.60;42.70;;;;;;5057077;28;20426;-80
2021/04/01 14:42:42;;;;;;;7.40;2.03;;;23.60;42.70;;;;;;5057824;28;20412;-79
2021/04/01 14:45:09;;;;;;;6.32;2.28;;;23.60;42.40;;;;;;5055444;28;20032;-80
2021/04/01 14:47:35;;;;;;;6.38;2.03;;;23.50;41.30;;;;;;5069181;28;20505;-79
2021/04/01 14:50:08;;;;;;;5.90;1.83;;;23.50;41.10;;;;;;5052316;28;20545;-78